Time;durP1;ratioP1;P1;durP2;ratioP2;P2;SDS_P1;SDS_P2;PMS_P1;PMS_P2;Temp;Humidity;BMP_temperature;BMP_pressure;BME280_temperature;BME280_humidity;BME280_pressure;Samples;Min_cycle;Max_cycle;Signal;HPM_P1;HPM_P2
2022/12/12 00:01:14;;;;;;;21.88;11.07;;;1.90;99.90;;;;;;5055066;28;20047;-69
2022/12/12 00:03:39;;;;;;;19.70;10.90;;;2.00;99.90;;;;;;5053569;28;20493;-69
2022/12/12 00:06:05;;;;;;;20.33;11.98;;;2.00;99.90;;;;;;5050866;28;20039;-69
2022/12/12 00:08:31;;;;;;;18.40;10.90;;;2.00;99.90;;;;;;5052236;28;20029;-69
2022/12/12 00:10:57;;;;;;;21.83;11.90;;;2.00;99.90;;;;;;5038096;28;20036;-71
2022/12/12 00:13:23;;;;;;;20.45;11.00;;;2.10;99.90;;;;;;5052841;28;20389;-70
2022/12/12 00:15:48;;;;;;;19.95;11.23;;;2.10;99.90;;;;;;5053179;28;20040;-69
2022/12/12 00:18:14;;;;;;;19.63;10.25;;;2.00;99.90;;;;;;5054914;28;20433;-69
2022/12/12 00:20:39;;;;;;;20.00;10.77;;;2.10;99.90;;;;;;5053996;28;20381;-69
2022/12/12 00:23:05;;;;;;;21.98;11.55;;;2.10;99.90;;;;;;5054341;28;20151;-69
2022/12/12 00:25:31;;;;;;;23.63;11.60;;;2.00;99.90;;;;;;5053341;28;20115;-69
2022/12/12 00:27:56;;;;;;;26.55;11.80;;;2.00;99.90;;;;;;5054289;28;20051;-70
2022/12/12 00:30:22;;;;;;;24.02;11.80;;;2.00;99.90;;;;;;5051887;28;20086;-69
2022/12/12 00:32:48;;;;;;;26.63;12.98;;;2.00;99.90;;;;;;5053935;28;20025;-69
2022/12/12 00:35:13;;;;;;;26.73;13.45;;;1.90;99.90;;;;;;5055138;28;20024;-69
2022/12/12 00:37:39;;;;;;;25.98;12.77;;;1.80;99.90;;;;;;5052104;28;20081;-69
2022/12/12 00:40:05;;;;;;;27.90;13.50;;;1.90;99.90;;;;;;5053356;28;20084;-69
2022/12/12 00:42:31;;;;;;;32.17;13.52;;;1.80;99.90;;;;;;5039387;28;20047;-69
2022/12/12 00:44:56;;;;;;;28.80;13.38;;;1.70;99.90;;;;;;5054455;28;20476;-69
2022/12/12 00:47:22;;;;;;;30.58;13.38;;;1.70;99.90;;;;;;5053490;28;20078;-69
2022/12/12 00:49:48;;;;;;;29.67;13.98;;;1.80;99.90;;;;;;5055432;28;20028;-69
2022/12/12 00:52:13;;;;;;;31.05;13.82;;;1.80;99.90;;;;;;5044882;28;20048;-69
2022/12/12 00:54:39;;;;;;;28.98;13.30;;;1.80;99.90;;;;;;5075843;28;20115;-69
2022/12/12 00:57:05;;;;;;;30.42;14.18;;;1.90;99.90;;;;;;5057002;28;20032;-69
2022/12/12 00:59:30;;;;;;;30.13;13.45;;;1.90;99.90;;;;;;5058075;28;20033;-69
2022/12/12 01:01:56;;;;;;;27.55;12.80;;;2.00;99.90;;;;;;5055342;28;20542;-69
2022/12/12 01:04:22;;;;;;;32.05;14.43;;;2.00;99.90;;;;;;5052732;28;20039;-69
2022/12/12 01:06:47;;;;;;;28.30;13.13;;;1.90;99.90;;;;;;5056657;28;20031;-69
2022/12/12 01:09:13;;;;;;;32.92;13.48;;;1.80;99.90;;;;;;5053080;28;20040;-70
2022/12/12 01:11:38;;;;;;;35.35;14.25;;;1.70;99.90;;;;;;5044422;28;20098;-69
2022/12/12 01:14:04;;;;;;;29.65;13.93;;;1.80;99.90;;;;;;5056912;28;20150;-69
2022/12/12 01:16:30;;;;;;;30.50;13.88;;;1.80;99.90;;;;;;5056397;28;20025;-69
2022/12/12 01:18:56;;;;;;;29.83;13.60;;;1.70;99.90;;;;;;5038588;28;20043;-69
2022/12/12 01:21:22;;;;;;;31.33;12.98;;;1.60;99.90;;;;;;5054769;28;20036;-69
2022/12/12 01:23:48;;;;;;;30.95;13.68;;;1.50;99.90;;;;;;5056316;28;20111;-69
2022/12/12 01:26:17;;;;;;;29.33;12.85;;;1.70;99.90;;;;;;5050991;28;20356;-68
2022/12/12 01:28:44;;;;;;;26.25;12.32;;;1.70;99.90;;;;;;5061541;28;20052;-69
2022/12/12 01:31:10;;;;;;;31.88;14.88;;;1.80;99.90;;;;;;5060315;28;20043;-69
2022/12/12 01:33:36;;;;;;;28.08;12.63;;;1.70;99.90;;;;;;5060897;28;20060;-69
2022/12/12 01:36:02;;;;;;;27.35;13.15;;;1.60;99.90;;;;;;5055020;28;20175;-69
2022/12/12 01:38:28;;;;;;;26.05;12.43;;;1.70;99.90;;;;;;5059295;28;20487;-69
2022/12/12 01:40:54;;;;;;;28.60;12.80;;;1.80;99.90;;;;;;5058709;28;20044;-68
2022/12/12 01:43:22;;;;;;;25.40;10.50;;;1.90;99.90;;;;;;5056499;28;20090;-69
2022/12/12 01:46:07;;;;;;;20.90;9.75;;;1.90;99.90;;;;;;5056305;28;20565;-69
2022/12/12 01:48:35;;;;;;;20.98;10.00;;;1.80;99.90;;;;;;5045487;28;20024;-69
2022/12/12 01:51:08;;;;;;;19.98;9.35;;;1.90;99.90;;;;;;5058785;28;20048;-69
2022/12/12 01:53:35;;;;;;;16.67;8.55;;;1.90;99.90;;;;;;5061250;28;20551;-69
2022/12/12 01:56:06;;;;;;;20.77;9.27;;;2.00;99.90;;;;;;5056769;28;20090;-70
2022/12/12 01:58:32;;;;;;;20.00;9.05;;;2.00;99.90;;;;;;5058657;28;20028;-69
2022/12/12 02:00:58;;;;;;;18.45;9.48;;;1.90;99.90;;;;;;5059562;28;20045;-69
2022/12/12 02:03:24;;;;;;;17.60;9.15;;;1.70;99.90;;;;;;5060258;28;20032;-69
2022/12/12 02:05:55;;;;;;;16.75;8.55;;;1.70;99.90;;;;;;5057061;28;20056;-69
2022/12/12 02:08:21;;;;;;;18.05;8.80;;;1.70;99.90;;;;;;5058229;28;20028;-69
2022/12/12 02:10:47;;;;;;;19.05;9.30;;;1.80;99.90;;;;;;5057728;28;20044;-69
2022/12/12 02:13:18;;;;;;;15.82;8.35;;;1.80;99.90;;;;;;5060476;28;20417;-69
2022/12/12 02:15:59;;;;;;;17.97;8.77;;;1.90;99.90;;;;;;5058380;28;20399;-69
2022/12/12 02:18:44;;;;;;;18.98;8.80;;;1.90;99.90;;;;;;5050036;28;20090;-69
2022/12/12 02:21:19;;;;;;;19.58;8.98;;;1.80;99.90;;;;;;5057930;28;20052;-69
2022/12/12 02:23:54;;;;;;;18.92;9.30;;;1.80;99.90;;;;;;5058165;28;20104;-69
2022/12/12 02:26:35;;;;;;;17.98;9.02;;;1.80;99.90;;;;;;5052065;28;20112;-70
2022/12/12 02:29:38;;;;;;;17.35;8.65;;;1.80;99.90;;;;;;5054334;28;20035;-69
2022/12/12 02:32:22;;;;;;;18.50;8.98;;;1.90;99.90;;;;;;5024724;28;20512;-69
2022/12/12 02:34:53;;;;;;;16.25;8.48;;;2.00;99.90;;;;;;5056157;28;20040;-69
2022/12/12 02:37:57;;;;;;;17.73;9.13;;;2.00;99.90;;;;;;5059692;28;20471;-70
2022/12/12 02:40:30;;;;;;;17.63;8.90;;;2.00;99.90;;;;;;5061504;28;20071;-69
2022/12/12 02:43:24;;;;;;;16.35;9.30;;;2.00;99.90;;;;;;5057023;28;20240;-70
2022/12/12 02:45:56;;;;;;;18.92;9.18;;;1.80;99.90;;;;;;5057187;28;20031;-69
2022/12/12 02:48:29;;;;;;;22.38;10.77;;;1.80;99.90;;;;;;5061803;28;20459;-69
2022/12/12 02:50:59;;;;;;;21.00;9.57;;;1.80;99.90;;;;;;5046038;28;20119;-69
2022/12/12 02:53:25;;;;;;;17.45;8.82;;;1.80;99.90;;;;;;5057849;28;20028;-69
2022/12/12 02:56:05;;;;;;;15.48;8.55;;;1.80;99.90;;;;;;5055654;28;20460;-70
2022/12/12 02:58:33;;;;;;;22.20;9.25;;;1.90;99.90;;;;;;5050891;28;20399;-69
2022/12/12 03:01:23;;;;;;;21.45;9.77;;;1.90;99.90;;;;;;5074334;28;20039;-69
2022/12/12 03:10:22;;;;;;;14.80;7.50;;;1.70;99.90;;;;;;5053092;28;20063;-70
2022/12/12 03:12:57;;;;;;;16.67;7.72;;;1.60;99.90;;;;;;5067864;28;20111;-71
2022/12/12 03:15:29;;;;;;;14.02;7.88;;;1.80;99.90;;;;;;5055444;28;20063;-69
2022/12/12 03:18:04;;;;;;;15.60;7.80;;;1.80;99.90;;;;;;5061149;28;20028;-71
2022/12/12 03:20:48;;;;;;;18.08;8.38;;;1.80;99.90;;;;;;5053021;28;20373;-71
2022/12/12 03:23:17;;;;;;;11.88;7.18;;;1.80;99.90;;;;;;5054892;28;20052;-71
2022/12/12 03:25:57;;;;;;;14.27;7.18;;;1.80;99.90;;;;;;5043257;28;20082;-71
2022/12/12 03:28:35;;;;;;;15.10;7.28;;;1.70;99.90;;;;;;5045510;28;20091;-71
2022/12/12 03:31:06;;;;;;;13.02;7.20;;;1.80;99.90;;;;;;5051085;28;20025;-71
2022/12/12 03:33:37;;;;;;;16.23;8.00;;;1.80;99.90;;;;;;5035935;28;20115;-70
2022/12/12 03:36:13;;;;;;;;;;;1.80;99.90;;;;;;5034450;28;20368;-71
2022/12/12 03:38:55;;;;;;;10.57;5.95;;;1.80;99.90;;;;;;5054605;28;19913;-70
2022/12/12 03:41:25;;;;;;;12.13;5.93;;;1.70;99.90;;;;;;5054011;28;20044;-71
2022/12/12 03:44:04;;;;;;;12.45;7.60;;;1.60;99.90;;;;;;5053112;28;20079;-69
2022/12/12 03:46:43;;;;;;;12.88;6.75;;;1.60;99.90;;;;;;5052057;28;20040;-71
2022/12/12 03:49:15;;;;;;;13.02;6.75;;;1.50;99.90;;;;;;5050411;28;20060;-71
2022/12/12 03:51:57;;;;;;;12.85;6.88;;;1.60;99.90;;;;;;5053469;28;20418;-71
2022/12/12 03:54:26;;;;;;;12.68;6.45;;;1.60;99.90;;;;;;5055203;28;20039;-70
2022/12/12 03:57:00;;;;;;;13.05;6.30;;;1.70;99.90;;;;;;5033714;28;20040;-71
2022/12/12 03:59:30;;;;;;;13.77;6.85;;;1.70;99.90;;;;;;5053644;28;20063;-71
2022/12/12 04:02:27;;;;;;;14.98;7.03;;;1.60;99.90;;;;;;5016434;28;20029;-71
2022/12/12 04:05:12;;;;;;;12.20;7.22;;;1.70;99.90;;;;;;5052932;28;20033;-71
2022/12/12 04:08:00;;;;;;;13.90;7.15;;;1.70;99.90;;;;;;5053759;28;20052;-71
2022/12/12 04:13:55;;;;;;;11.32;6.80;;;1.70;99.90;;;;;;5051645;28;20132;-71
2022/12/12 04:16:29;;;;;;;12.77;7.07;;;1.70;99.90;;;;;;5035814;28;20105;-71
2022/12/12 04:18:58;;;;;;;11.73;6.85;;;1.60;99.90;;;;;;5054967;28;20024;-71
2022/12/12 04:24:33;;;;;;;13.20;7.20;;;1.70;99.90;;;;;;5070623;28;20043;-71
2022/12/12 04:27:02;;;;;;;14.73;8.30;;;1.70;99.90;;;;;;5047416;28;20048;-71
2022/12/12 04:29:40;;;;;;;15.75;8.02;;;1.50;99.90;;;;;;5045661;28;20536;-71
2022/12/12 04:32:23;;;;;;;17.38;7.88;;;1.40;99.90;;;;;;5052166;28;20043;-71
2022/12/12 04:34:54;;;;;;;14.20;7.78;;;1.40;99.90;;;;;;5054310;28;20094;-71
2022/12/12 04:37:27;;;;;;;13.23;7.65;;;1.50;99.90;;;;;;5052531;28;20074;-71
2022/12/12 04:39:58;;;;;;;12.43;7.10;;;1.60;99.90;;;;;;5053810;28;20040;-69
2022/12/12 04:42:28;;;;;;;12.90;7.60;;;1.60;99.90;;;;;;5053771;28;20775;-71
2022/12/12 04:44:59;;;;;;;17.25;7.93;;;1.60;99.90;;;;;;5054067;28;20055;-72
2022/12/12 04:47:29;;;;;;;14.18;7.30;;;1.50;99.90;;;;;;5043106;28;20025;-71
2022/12/12 04:49:57;;;;;;;11.45;6.80;;;1.50;99.90;;;;;;5048670;28;20283;-71
2022/12/12 04:52:25;;;;;;;14.10;7.90;;;1.60;99.90;;;;;;5049720;28;20518;-71
2022/12/12 04:55:07;;;;;;;16.10;7.45;;;1.60;99.90;;;;;;5054267;28;20097;-70
2022/12/12 04:57:46;;;;;;;12.50;6.90;;;1.70;99.90;;;;;;5057709;28;20073;-70
2022/12/12 05:00:12;;;;;;;17.50;8.25;;;1.70;99.90;;;;;;5051712;28;20047;-70
2022/12/12 05:03:02;;;;;;;15.10;7.40;;;1.80;99.90;;;;;;5051067;28;20025;-70
2022/12/12 05:05:33;;;;;;;16.58;8.25;;;1.70;99.90;;;;;;5034310;28;20048;-70
2022/12/12 05:08:07;;;;;;;18.27;8.82;;;1.80;99.90;;;;;;5036523;28;20028;-71
2022/12/12 05:10:33;;;;;;;15.02;7.53;;;1.70;99.90;;;;;;5053148;28;20135;-70
2022/12/12 05:13:00;;;;;;;12.73;7.22;;;1.70;99.90;;;;;;5053725;28;20028;-70
2022/12/12 05:15:27;;;;;;;16.08;7.28;;;1.80;99.90;;;;;;5054153;28;20468;-70
2022/12/12 05:18:00;;;;;;;14.90;7.72;;;1.80;99.90;;;;;;5051967;28;20481;-70
2022/12/12 05:20:26;;;;;;;13.77;7.45;;;1.80;99.90;;;;;;5053773;28;20044;-70
2022/12/12 05:22:51;;;;;;;14.77;8.52;;;1.80;99.90;;;;;;5053242;28;20449;-71
2022/12/12 05:25:17;;;;;;;11.10;6.95;;;1.90;99.90;;;;;;5053935;28;20428;-70
2022/12/12 05:27:43;;;;;;;12.98;7.53;;;1.80;99.90;;;;;;5052989;28;20052;-70
2022/12/12 05:30:09;;;;;;;14.68;8.02;;;1.70;99.90;;;;;;5046363;28;20060;-70
2022/12/12 05:32:35;;;;;;;14.65;7.40;;;1.70;99.90;;;;;;5052978;28;20078;-71
2022/12/12 05:35:01;;;;;;;13.40;7.60;;;1.70;99.90;;;;;;5054164;28;20150;-71
2022/12/12 05:37:27;;;;;;;15.32;7.90;;;1.60;99.90;;;;;;5052666;28;20044;-70
2022/12/12 05:39:52;;;;;;;16.70;7.60;;;1.40;99.90;;;;;;5053343;28;20067;-70
2022/12/12 05:42:18;;;;;;;14.02;7.20;;;1.30;99.90;;;;;;5052034;28;20025;-71
2022/12/12 05:44:44;;;;;;;17.60;8.77;;;1.30;99.90;;;;;;5043708;28;20063;-71
2022/12/12 05:47:09;;;;;;;16.13;7.68;;;1.40;99.90;;;;;;5033684;28;20530;-71
2022/12/12 05:49:35;;;;;;;15.60;7.55;;;1.50;99.90;;;;;;5033713;28;20138;-70
2022/12/12 05:52:00;;;;;;;13.95;7.68;;;1.60;99.90;;;;;;5046015;28;20500;-70
2022/12/12 05:54:26;;;;;;;15.55;8.00;;;1.60;99.90;;;;;;5054084;28;20577;-70
2022/12/12 05:56:52;;;;;;;15.98;8.55;;;1.70;99.90;;;;;;5054401;28;20043;-70
2022/12/12 05:59:18;;;;;;;15.18;7.78;;;1.70;99.90;;;;;;5062140;28;20391;-70
2022/12/12 06:01:43;;;;;;;17.52;8.63;;;1.80;99.90;;;;;;5053585;28;20562;-71
2022/12/12 06:04:09;;;;;;;15.13;8.52;;;1.60;99.90;;;;;;5072030;28;20498;-70
2022/12/12 06:06:35;;;;;;;16.20;8.25;;;1.60;99.90;;;;;;5038520;28;20447;-71
2022/12/12 06:09:00;;;;;;;17.92;8.75;;;1.60;99.90;;;;;;5053281;28;20477;-70
2022/12/12 06:11:26;;;;;;;13.82;8.68;;;1.60;99.90;;;;;;5053311;28;20113;-70
2022/12/12 06:13:51;;;;;;;16.67;8.73;;;1.60;99.90;;;;;;5056440;28;20415;-70
2022/12/12 06:16:18;;;;;;;15.70;8.02;;;1.60;99.90;;;;;;5056084;28;20081;-70
2022/12/12 06:18:52;;;;;;;17.50;9.15;;;1.60;99.90;;;;;;5057888;28;20039;-70
2022/12/12 06:21:19;;;;;;;16.63;8.02;;;1.50;99.90;;;;;;5054691;28;20037;-71
2022/12/12 06:23:45;;;;;;;15.73;8.90;;;1.40;99.90;;;;;;5038306;28;20138;-70
2022/12/12 06:26:12;;;;;;;16.83;8.07;;;1.40;99.90;;;;;;5056499;28;20033;-70
2022/12/12 06:28:38;;;;;;;14.13;8.65;;;1.40;99.90;;;;;;5053426;28;20162;-70
2022/12/12 06:31:04;;;;;;;14.13;8.45;;;1.50;99.90;;;;;;5056385;28;20051;-71
2022/12/12 06:33:34;;;;;;;17.02;9.13;;;1.60;99.90;;;;;;5055865;28;20488;-70
2022/12/12 06:36:15;;;;;;;17.10;8.85;;;1.60;99.90;;;;;;5045628;28;20635;-70
2022/12/12 06:38:41;;;;;;;12.82;7.72;;;1.70;99.90;;;;;;5054050;28;20120;-70
2022/12/12 06:41:12;;;;;;;15.10;8.35;;;1.70;99.90;;;;;;5056042;28;20053;-71
2022/12/12 06:43:38;;;;;;;17.63;8.63;;;1.70;99.90;;;;;;5057592;28;20032;-71
2022/12/12 06:46:06;;;;;;;14.45;8.45;;;1.70;99.90;;;;;;5056409;28;20107;-70
2022/12/12 06:48:32;;;;;;;14.00;7.93;;;1.70;99.90;;;;;;5057104;28;20021;-71
2022/12/12 06:50:59;;;;;;;16.13;8.25;;;1.70;99.90;;;;;;5049564;28;20047;-70
2022/12/12 06:53:25;;;;;;;16.80;9.20;;;1.70;99.90;;;;;;5053909;28;20064;-70
2022/12/12 06:55:50;;;;;;;14.10;8.10;;;1.70;99.90;;;;;;5054480;28;20611;-70
2022/12/12 06:58:16;;;;;;;16.30;8.38;;;1.70;99.90;;;;;;5056752;28;20730;-70
2022/12/12 07:00:42;;;;;;;14.15;8.05;;;1.70;99.90;;;;;;5054582;28;20131;-70
2022/12/12 07:03:11;;;;;;;14.45;7.57;;;1.80;99.90;;;;;;5059744;28;20028;-71
2022/12/12 07:05:37;;;;;;;13.75;7.93;;;1.70;99.90;;;;;;5056261;28;20666;-70
2022/12/12 07:08:03;;;;;;;14.38;8.13;;;1.70;99.90;;;;;;5046870;28;20032;-69
2022/12/12 07:10:29;;;;;;;16.88;8.10;;;1.70;99.90;;;;;;5048619;28;20466;-71
2022/12/12 07:12:55;;;;;;;14.32;8.07;;;1.70;99.90;;;;;;5046487;28;20028;-70
2022/12/12 07:15:21;;;;;;;17.23;9.05;;;1.70;99.90;;;;;;5049054;28;20028;-70
2022/12/12 07:17:47;;;;;;;16.88;8.98;;;1.70;99.90;;;;;;5049559;28;20484;-70
2022/12/12 07:20:12;;;;;;;17.08;8.98;;;1.70;99.90;;;;;;5042676;28;20052;-70
2022/12/12 07:22:38;;;;;;;13.68;7.78;;;1.60;99.90;;;;;;5044962;28;20032;-70
2022/12/12 07:25:06;;;;;;;15.45;8.68;;;1.50;99.90;;;;;;5049445;28;20082;-70
2022/12/12 07:27:32;;;;;;;17.00;8.80;;;1.50;99.90;;;;;;5036912;28;20032;-69
2022/12/12 07:29:57;;;;;;;16.92;9.40;;;1.60;99.90;;;;;;5048287;28;20024;-70
2022/12/12 07:32:23;;;;;;;16.02;8.77;;;1.60;99.90;;;;;;5040936;28;20420;-70
2022/12/12 07:34:48;;;;;;;15.18;8.90;;;1.60;99.90;;;;;;5044666;28;20036;-70
2022/12/12 07:37:14;;;;;;;15.57;7.97;;;1.70;99.90;;;;;;5041016;28;20021;-70
2022/12/12 07:39:40;;;;;;;17.45;9.25;;;1.60;99.90;;;;;;5044601;28;20028;-69
2022/12/12 07:42:05;;;;;;;16.40;9.70;;;1.60;99.90;;;;;;5042023;28;20086;-71
2022/12/12 07:44:31;;;;;;;20.48;8.82;;;1.70;99.90;;;;;;5039615;28;20110;-70
2022/12/12 07:46:57;;;;;;;22.55;11.02;;;1.70;99.90;;;;;;5038148;28;20033;-71
2022/12/12 07:49:23;;;;;;;19.10;9.10;;;1.60;99.90;;;;;;5024757;28;20032;-70
2022/12/12 07:51:50;;;;;;;16.00;9.30;;;1.60;99.90;;;;;;5039532;28;20460;-70
2022/12/12 07:54:16;;;;;;;18.88;9.93;;;1.70;99.90;;;;;;5044431;28;20082;-70
2022/12/12 07:56:42;;;;;;;15.43;8.60;;;1.60;99.90;;;;;;5046530;28;20461;-70
2022/12/12 07:59:07;;;;;;;19.55;9.07;;;1.60;99.90;;;;;;5047215;28;20029;-70
2022/12/12 08:01:33;;;;;;;14.05;8.23;;;1.70;99.90;;;;;;5042925;28;20074;-71
2022/12/12 08:03:58;;;;;;;16.33;8.63;;;1.70;99.90;;;;;;5048499;28;20404;-70
2022/12/12 08:06:24;;;;;;;20.65;9.90;;;1.60;99.90;;;;;;5048331;28;20165;-70
2022/12/12 08:08:52;;;;;;;17.85;9.10;;;1.70;99.90;;;;;;5055574;28;20108;-71
2022/12/12 08:11:20;;;;;;;15.55;9.00;;;1.70;99.90;;;;;;5050723;28;20488;-70
2022/12/12 08:13:46;;;;;;;17.98;8.98;;;1.70;99.90;;;;;;5052379;28;20486;-70
2022/12/12 08:16:15;;;;;;;19.10;9.23;;;1.70;99.90;;;;;;5053798;28;20032;-71
2022/12/12 08:18:41;;;;;;;16.40;9.18;;;1.70;99.90;;;;;;5050511;28;20028;-70
2022/12/12 08:21:09;;;;;;;18.13;8.82;;;1.70;99.90;;;;;;5042658;28;20142;-70
2022/12/12 08:23:35;;;;;;;18.02;9.02;;;1.70;99.90;;;;;;5053683;28;20025;-70
2022/12/12 08:26:13;;;;;;;18.05;10.10;;;1.50;99.90;;;;;;5053150;28;20047;-71
2022/12/12 08:28:40;;;;;;;16.42;9.27;;;1.30;99.90;;;;;;5035230;28;20116;-71
2022/12/12 08:31:06;;;;;;;18.08;10.27;;;1.30;99.90;;;;;;5044716;28;20048;-70
2022/12/12 08:33:34;;;;;;;14.05;8.63;;;1.40;99.90;;;;;;5053420;28;20090;-70
2022/12/12 08:35:59;;;;;;;18.08;9.73;;;1.50;99.90;;;;;;5051993;28;20521;-71
2022/12/12 08:38:25;;;;;;;15.85;8.80;;;1.60;99.90;;;;;;5050367;28;20086;-70
2022/12/12 08:40:50;;;;;;;16.70;8.82;;;1.60;99.90;;;;;;5044162;28;20040;-71
2022/12/12 08:43:16;;;;;;;15.55;8.57;;;1.50;99.90;;;;;;5038965;28;20048;-70
2022/12/12 08:45:42;;;;;;;16.52;8.68;;;1.60;99.90;;;;;;5020751;28;20020;-70
2022/12/12 08:48:10;;;;;;;15.98;8.73;;;1.70;99.90;;;;;;5036633;28;20353;-70
2022/12/12 08:50:39;;;;;;;16.55;8.90;;;1.80;99.90;;;;;;5041782;28;20431;-71
2022/12/12 08:53:05;;;;;;;13.82;6.90;;;1.90;99.90;;;;;;5045328;28;20179;-71
2022/12/12 08:55:30;;;;;;;14.52;7.97;;;1.90;99.90;;;;;;5051960;28;20574;-71
2022/12/12 08:57:56;;;;;;;14.75;8.15;;;2.00;99.90;;;;;;5046492;28;20102;-71
2022/12/12 09:00:22;;;;;;;13.10;8.10;;;2.00;99.90;;;;;;5050191;28;20036;-70
2022/12/12 09:02:48;;;;;;;15.65;8.60;;;2.00;99.90;;;;;;5048763;28;20435;-71
2022/12/12 09:05:13;;;;;;;12.10;7.55;;;2.10;99.90;;;;;;5038460;28;20036;-70
2022/12/12 09:07:39;;;;;;;15.23;8.38;;;2.10;99.90;;;;;;5034804;28;20452;-71
2022/12/12 09:10:05;;;;;;;12.18;6.95;;;2.00;99.90;;;;;;5034797;28;21195;-69
2022/12/12 09:12:31;;;;;;;14.27;7.78;;;2.00;99.90;;;;;;5034129;28;20212;-69
2022/12/12 09:14:56;;;;;;;15.90;8.02;;;2.10;99.90;;;;;;5033987;28;20081;-71
2022/12/12 09:17:22;;;;;;;13.93;7.80;;;2.10;99.90;;;;;;5043652;28;20330;-71
2022/12/12 09:19:48;;;;;;;13.40;7.88;;;2.00;99.90;;;;;;5048661;28;20276;-71
2022/12/12 09:22:13;;;;;;;15.70;8.43;;;1.90;99.90;;;;;;5048736;28;20024;-71
2022/12/12 09:24:39;;;;;;;15.35;8.15;;;1.70;99.90;;;;;;5053790;28;20060;-71
2022/12/12 09:27:04;;;;;;;12.40;7.38;;;1.90;99.90;;;;;;5053914;28;20403;-71
2022/12/12 09:29:30;;;;;;;14.93;8.30;;;2.00;99.90;;;;;;5053141;28;20081;-71
2022/12/12 09:31:56;;;;;;;13.32;7.40;;;2.10;99.90;;;;;;5053255;28;20033;-71
2022/12/12 09:34:21;;;;;;;12.07;7.80;;;2.10;99.90;;;;;;5049494;28;20035;-70
2022/12/12 09:36:47;;;;;;;14.50;8.10;;;2.20;99.90;;;;;;5047776;28;20025;-71
2022/12/12 09:39:12;;;;;;;14.20;8.18;;;2.20;99.90;;;;;;5041152;28;20485;-70
2022/12/12 09:41:38;;;;;;;12.75;7.97;;;2.30;99.90;;;;;;5044551;28;20571;-70
2022/12/12 09:44:17;;;;;;;14.75;8.95;;;2.40;99.90;;;;;;5040097;28;20025;-70
2022/12/12 09:46:56;;;;;;;15.15;8.57;;;2.40;99.90;;;;;;5041955;28;20032;-71
2022/12/12 09:49:52;;;;;;;12.15;7.38;;;2.40;99.90;;;;;;5043624;28;20392;-71
2022/12/12 09:52:27;;;;;;;14.65;8.00;;;2.40;99.90;;;;;;5031663;28;20041;-70
2022/12/12 09:54:53;;;;;;;10.65;7.18;;;2.40;99.90;;;;;;5058180;28;20365;-71
2022/12/12 09:57:40;;;;;;;13.30;7.88;;;2.40;99.90;;;;;;5057451;28;20028;-70
2022/12/12 10:00:14;;;;;;;16.15;7.97;;;2.40;99.90;;;;;;5057378;28;20144;-70
2022/12/12 10:02:47;;;;;;;11.20;6.78;;;2.40;99.90;;;;;;5054804;28;20126;-70
2022/12/12 10:05:34;;;;;;;15.50;8.95;;;2.50;99.90;;;;;;5039743;28;20247;-70
2022/12/12 10:08:09;;;;;;;15.27;8.77;;;2.50;99.90;;;;;;5038971;28;20027;-70
2022/12/12 10:10:42;;;;;;;15.48;9.15;;;2.60;99.90;;;;;;5038903;28;20459;-71
2022/12/12 10:13:15;;;;;;;13.65;8.50;;;2.60;99.90;;;;;;5048466;28;20039;-71
2022/12/12 10:15:45;;;;;;;14.55;8.18;;;2.70;99.90;;;;;;5038979;28;20070;-70
2022/12/12 10:18:31;;;;;;;15.75;8.40;;;2.70;99.90;;;;;;5049741;28;20037;-70
2022/12/12 10:21:00;;;;;;;14.13;8.35;;;2.70;99.70;;;;;;5041384;28;20567;-70
2022/12/12 10:23:47;;;;;;;14.75;8.73;;;2.80;99.90;;;;;;5052544;28;20025;-70
2022/12/12 10:26:17;;;;;;;17.13;9.13;;;2.90;99.90;;;;;;5054254;28;20188;-71
2022/12/12 10:28:43;;;;;;;15.55;9.60;;;3.00;99.90;;;;;;5045519;28;20029;-70
2022/12/12 10:31:32;;;;;;;13.32;8.80;;;3.10;99.40;;;;;;5047480;28;20283;-70
2022/12/12 10:34:18;;;;;;;14.07;8.63;;;3.20;98.50;;;;;;5049444;28;20028;-70
2022/12/12 10:37:15;;;;;;;14.75;8.73;;;3.30;98.90;;;;;;5049633;28;20384;-70
2022/12/12 10:39:46;;;;;;;13.88;7.63;;;3.30;97.10;;;;;;5052202;28;20032;-70
2022/12/12 10:43:00;;;;;;;12.32;7.63;;;3.30;97.10;;;;;;5054358;28;20054;-70
2022/12/12 10:45:26;;;;;;;15.40;8.98;;;3.20;96.30;;;;;;4981964;28;20042;-71
2022/12/12 10:47:52;;;;;;;13.27;7.50;;;3.30;97.60;;;;;;5054243;28;20024;-70
2022/12/12 10:50:30;;;;;;;11.98;8.05;;;3.40;97.00;;;;;;5053794;28;20587;-70
2022/12/12 10:52:55;;;;;;;12.40;7.63;;;3.30;97.60;;;;;;5057476;28;20032;-71
2022/12/12 10:55:53;;;;;;;13.82;8.13;;;3.50;97.60;;;;;;5050202;28;20420;-70
2022/12/12 10:58:24;;;;;;;13.90;8.93;;;3.60;96.80;;;;;;5053256;28;20025;-70
2022/12/12 11:00:50;;;;;;;14.67;8.70;;;3.70;95.80;;;;;;5043970;28;20037;-70
2022/12/12 11:03:25;;;;;;;13.68;8.77;;;3.70;96.30;;;;;;5044972;28;20552;-70
2022/12/12 11:05:52;;;;;;;13.13;8.38;;;3.70;95.70;;;;;;5040962;28;20052;-71
2022/12/12 11:08:32;;;;;;;14.00;8.48;;;3.80;94.70;;;;;;5039761;28;20032;-71
2022/12/12 11:11:04;;;;;;;12.48;6.80;;;4.00;94.00;;;;;;5037541;28;20032;-70
2022/12/12 11:13:31;;;;;;;13.88;8.18;;;4.20;93.60;;;;;;5042692;28;20049;-70
2022/12/12 11:16:00;;;;;;;11.07;7.10;;;4.30;92.60;;;;;;5047810;28;21902;-70
2022/12/12 11:18:27;;;;;;;15.38;8.10;;;4.40;92.00;;;;;;5047275;28;20097;-69
2022/12/12 11:20:55;;;;;;;17.77;9.98;;;4.40;92.10;;;;;;5053299;28;20052;-66
2022/12/12 11:23:27;;;;;;;16.77;9.20;;;4.30;91.40;;;;;;5053214;28;22166;-70
2022/12/12 11:25:57;;;;;;;;;;;4.20;92.90;;;;;;5051207;28;20373;-70
2022/12/12 11:28:26;;;;;;;15.57;8.93;;;4.20;92.40;;;;;;5052409;28;19912;-70
2022/12/12 11:30:54;;;;;;;14.25;8.48;;;4.20;92.50;;;;;;5052483;28;20024;-69
2022/12/12 11:33:33;;;;;;;17.77;8.90;;;4.20;92.80;;;;;;5054794;28;20247;-69
2022/12/12 11:36:02;;;;;;;17.98;10.50;;;4.30;93.40;;;;;;5053935;28;20511;-69
2022/12/12 11:38:39;;;;;;;16.85;9.95;;;4.30;93.60;;;;;;5054683;28;20036;-70
2022/12/12 11:41:10;;;;;;;16.42;9.68;;;4.60;93.90;;;;;;5054887;28;20052;-70
2022/12/12 11:43:50;;;;;;;16.45;9.48;;;4.70;92.70;;;;;;5056565;28;20065;-70
2022/12/12 11:46:19;;;;;;;13.23;8.35;;;4.60;92.80;;;;;;5052785;28;20587;-70
2022/12/12 11:48:50;;;;;;;15.30;9.10;;;4.30;92.70;;;;;;5049866;28;20032;-70
2022/12/12 11:51:34;;;;;;;15.57;8.88;;;4.20;93.90;;;;;;5049798;28;20047;-70
2022/12/12 11:54:03;;;;;;;16.70;9.38;;;4.10;94.20;;;;;;5048963;28;20665;-70
2022/12/12 11:56:47;;;;;;;17.60;10.00;;;4.10;95.20;;;;;;5045590;28;20025;-68
2022/12/12 11:59:25;;;;;;;18.88;11.15;;;4.00;95.70;;;;;;5041433;28;20028;-70
2022/12/12 12:02:16;;;;;;;17.63;10.82;;;4.10;96.40;;;;;;5044588;28;20274;-69
2022/12/12 12:04:53;;;;;;;16.88;10.63;;;3.90;95.90;;;;;;5049088;28;20040;-70
2022/12/12 12:07:42;;;;;;;21.55;11.90;;;3.90;97.00;;;;;;5048823;28;20028;-69
2022/12/12 12:10:21;;;;;;;38.30;18.20;;;4.00;96.60;;;;;;5049604;28;20028;-69
2022/12/12 12:13:05;;;;;;;21.48;11.18;;;4.00;96.50;;;;;;5035802;28;20017;-69
2022/12/12 12:15:48;;;;;;;20.85;11.70;;;4.00;97.00;;;;;;5048757;28;20016;-69
2022/12/12 12:19:02;;;;;;;18.85;11.95;;;3.90;97.00;;;;;;5055256;28;20033;-69
2022/12/12 12:21:40;;;;;;;23.20;13.38;;;3.90;97.10;;;;;;4969756;28;20054;-69
2022/12/12 12:24:31;;;;;;;27.38;15.32;;;3.70;96.70;;;;;;4965541;28;20085;-69
2022/12/12 12:27:22;;;;;;;23.85;13.68;;;3.60;97.30;;;;;;5027086;28;20032;-69
2022/12/12 12:30:03;;;;;;;21.33;12.93;;;3.60;98.20;;;;;;5053767;28;20059;-69
2022/12/12 12:32:42;;;;;;;25.02;14.07;;;3.60;98.40;;;;;;5018275;28;20103;-72
2022/12/12 12:35:30;;;;;;;23.60;14.05;;;3.60;98.60;;;;;;5047487;28;20028;-69
2022/12/12 12:38:25;;;;;;;28.27;14.45;;;3.60;99.10;;;;;;5050921;28;20036;-70
2022/12/12 12:41:19;;;;;;;26.25;13.48;;;3.50;98.90;;;;;;5053183;28;20044;-69
2022/12/12 12:43:54;;;;;;;25.50;12.95;;;3.50;99.60;;;;;;5048850;28;20316;-68
2022/12/12 12:46:52;;;;;;;25.02;13.07;;;3.50;99.90;;;;;;5049413;28;20192;-71
2022/12/12 12:49:31;;;;;;;26.27;13.23;;;3.40;99.90;;;;;;5045486;28;20036;-72
2022/12/12 12:52:03;;;;;;;28.15;13.57;;;3.40;99.90;;;;;;5044663;28;20040;-71
2022/12/12 12:54:35;;;;;;;26.70;13.18;;;3.40;99.90;;;;;;5043168;28;20035;-71
2022/12/12 12:57:18;;;;;;;25.27;12.88;;;3.30;99.90;;;;;;5043725;28;20033;-68
2022/12/12 12:59:47;;;;;;;25.98;12.57;;;3.20;99.90;;;;;;5043993;28;20044;-72
2022/12/12 13:02:21;;;;;;;24.48;13.10;;;3.10;99.90;;;;;;5051654;28;20033;-71
2022/12/12 13:04:54;;;;;;;28.85;14.00;;;2.90;99.90;;;;;;5049762;28;20043;-72
2022/12/12 13:07:41;;;;;;;28.15;14.40;;;2.70;99.90;;;;;;5050949;28;20051;-71
2022/12/12 13:10:23;;;;;;;26.40;13.38;;;2.70;99.90;;;;;;5046304;28;20385;-69
2022/12/12 13:12:57;;;;;;;28.65;15.32;;;2.80;99.90;;;;;;5036280;28;20123;-71
2022/12/12 13:15:35;;;;;;;26.23;13.95;;;2.80;99.90;;;;;;5040047;28;20032;-70
2022/12/12 13:18:12;;;;;;;29.60;14.68;;;2.80;99.90;;;;;;5034561;28;20359;-72
2022/12/12 13:20:41;;;;;;;30.75;14.85;;;2.80;99.90;;;;;;5048908;28;20032;-71